Time;durP1;ratioP1;P1;durP2;ratioP2;P2;SDS_P1;SDS_P2;PMS_P1;PMS_P2;Temp;Humidity;BMP_temperature;BMP_pressure;BME280_temperature;BME280_humidity;BME280_pressure;Samples;Min_cycle;Max_cycle;Signal;HPM_P1;HPM_P2
2022/07/05 00:01:56;;;;;;;6.88;5.65;;;14.50;99.90;;;;;;5034600;28;20056;-71
2022/07/05 00:04:22;;;;;;;6.22;5.30;;;14.50;99.90;;;;;;5030789;28;20500;-71
2022/07/05 00:09:32;;;;;;;7.43;5.60;;;14.40;99.90;;;;;;4998346;28;20455;-71
2022/07/05 00:11:58;;;;;;;7.63;5.65;;;14.40;99.90;;;;;;4998631;28;20042;-72
2022/07/05 00:14:23;;;;;;;6.18;5.57;;;14.40;99.90;;;;;;4998328;28;20448;-71
2022/07/05 00:16:49;;;;;;;7.68;5.75;;;14.30;99.90;;;;;;4998199;28;20480;-71
2022/07/05 00:19:15;;;;;;;7.75;6.07;;;14.30;99.90;;;;;;4998276;28;20368;-72
2022/07/05 00:21:41;;;;;;;7.97;5.43;;;14.30;99.90;;;;;;4998183;28;20043;-71
2022/07/05 00:24:07;;;;;;;9.82;5.10;;;14.30;99.90;;;;;;5000754;28;20468;-71
2022/07/05 00:26:32;;;;;;;6.68;5.00;;;14.30;99.90;;;;;;5037553;28;20448;-72
2022/07/05 00:28:58;;;;;;;7.18;5.32;;;14.20;99.90;;;;;;5037276;28;20348;-71
2022/07/05 00:31:23;;;;;;;7.78;6.05;;;14.30;99.90;;;;;;5037274;28;20098;-71
2022/07/05 00:33:49;;;;;;;7.80;5.38;;;14.30;99.90;;;;;;5037147;28;20068;-71
2022/07/05 00:36:14;;;;;;;8.02;4.30;;;14.30;99.90;;;;;;5037482;28;20056;-70
2022/07/05 00:38:40;;;;;;;5.10;4.00;;;14.30;99.90;;;;;;5037206;28;20356;-71
2022/07/05 00:41:06;;;;;;;5.43;3.95;;;14.30;99.90;;;;;;5036363;28;20049;-72
2022/07/05 00:43:31;;;;;;;5.40;3.80;;;14.30;99.90;;;;;;5037760;28;20494;-71
2022/07/05 00:45:57;;;;;;;7.13;4.60;;;14.20;99.90;;;;;;5036855;28;20133;-71
2022/07/05 00:48:22;;;;;;;8.80;5.85;;;14.20;99.90;;;;;;5037094;28;20472;-71
2022/07/05 00:50:50;;;;;;;7.70;5.28;;;14.20;99.90;;;;;;5036974;28;20115;-71
2022/07/05 00:53:16;;;;;;;7.75;5.43;;;14.20;99.90;;;;;;5036623;28;20452;-72
2022/07/05 00:55:43;;;;;;;9.05;5.40;;;14.10;99.90;;;;;;5037040;28;20052;-71
2022/07/05 00:58:10;;;;;;;11.02;5.45;;;14.10;99.90;;;;;;5035973;28;20100;-71
2022/07/05 01:00:35;;;;;;;6.97;4.45;;;14.20;99.90;;;;;;5036695;28;20034;-71
2022/07/05 01:03:01;;;;;;;9.80;4.97;;;14.20;99.90;;;;;;5036909;28;20107;-71
2022/07/05 01:05:28;;;;;;;5.18;4.53;;;14.20;99.90;;;;;;5024617;28;20445;-70
2022/07/05 01:07:56;;;;;;;7.65;4.43;;;14.20;99.90;;;;;;5016764;28;20045;-70
2022/07/05 01:10:22;;;;;;;6.60;4.60;;;14.10;99.90;;;;;;5016851;28;20037;-71
2022/07/05 01:12:48;;;;;;;6.95;4.47;;;14.10;99.90;;;;;;5016601;28;20053;-72
2022/07/05 01:15:14;;;;;;;5.82;4.88;;;14.10;99.90;;;;;;5018644;28;20535;-71
2022/07/05 01:17:39;;;;;;;9.57;6.20;;;14.20;99.90;;;;;;5036384;28;20053;-72
2022/07/05 01:20:07;;;;;;;8.25;4.80;;;14.10;99.90;;;;;;5035656;28;20049;-71
2022/07/05 01:22:54;;;;;;;7.28;4.45;;;14.20;99.90;;;;;;5036316;28;20038;-71
2022/07/05 01:25:25;;;;;;;7.00;3.95;;;14.20;99.90;;;;;;5036225;28;20053;-71
2022/07/05 01:27:51;;;;;;;6.65;4.35;;;14.10;99.90;;;;;;5036194;28;20091;-72
2022/07/05 01:30:17;;;;;;;6.85;4.65;;;14.10;99.90;;;;;;5036560;28;20049;-70
2022/07/05 01:32:43;;;;;;;4.93;3.60;;;14.00;99.90;;;;;;5017943;28;20064;-72
2022/07/05 01:35:10;;;;;;;5.30;4.43;;;14.00;99.90;;;;;;5035625;28;20084;-72
2022/07/05 01:37:36;;;;;;;5.32;4.60;;;14.00;99.90;;;;;;5036076;28;20060;-72
2022/07/05 01:40:06;;;;;;;6.47;4.38;;;14.00;99.90;;;;;;5035978;28;20049;-71
2022/07/05 01:42:32;;;;;;;6.15;4.22;;;14.00;99.90;;;;;;5018933;28;20060;-71
2022/07/05 01:44:58;;;;;;;7.07;4.75;;;14.00;99.90;;;;;;5036329;28;20053;-72
2022/07/05 01:47:24;;;;;;;4.43;4.03;;;14.00;99.90;;;;;;5015922;28;20049;-71
2022/07/05 01:49:53;;;;;;;5.35;4.25;;;13.90;99.90;;;;;;5022806;28;20045;-71
2022/07/05 01:52:21;;;;;;;7.80;4.15;;;13.90;99.90;;;;;;5035369;28;20132;-71
2022/07/05 01:54:48;;;;;;;7.13;4.15;;;13.90;99.90;;;;;;5035330;28;20080;-72
2022/07/05 01:57:14;;;;;;;6.78;4.13;;;13.90;99.90;;;;;;5035614;28;20081;-71
2022/07/05 01:59:40;;;;;;;6.80;4.50;;;13.90;99.90;;;;;;5035862;28;20057;-70
2022/07/05 02:02:07;;;;;;;5.03;4.45;;;13.90;99.90;;;;;;5035716;28;20490;-71
2022/07/05 02:04:34;;;;;;;6.07;4.43;;;13.90;99.90;;;;;;5030630;28;20045;-71
2022/07/05 02:07:04;;;;;;;10.10;4.90;;;13.90;99.90;;;;;;5023468;28;20041;-71
2022/07/05 02:09:29;;;;;;;6.70;4.55;;;14.00;99.90;;;;;;5035326;28;20041;-70
2022/07/05 02:11:55;;;;;;;9.23;4.13;;;14.00;99.90;;;;;;5035527;28;20340;-71
2022/07/05 02:14:21;;;;;;;6.15;3.70;;;14.10;99.90;;;;;;5035622;28;20056;-70
2022/07/05 02:16:47;;;;;;;5.30;3.63;;;14.00;99.90;;;;;;5009650;28;20517;-72
2022/07/05 02:19:12;;;;;;;6.35;4.25;;;14.00;99.90;;;;;;4996240;28;20053;-72
2022/07/05 02:21:38;;;;;;;4.43;3.67;;;13.90;99.90;;;;;;4995922;28;20398;-71
2022/07/05 02:24:05;;;;;;;5.03;4.18;;;14.00;99.90;;;;;;5014224;28;20080;-71
2022/07/05 02:26:30;;;;;;;4.25;3.65;;;14.00;99.90;;;;;;5035127;28;20363;-71
2022/07/05 02:28:56;;;;;;;5.03;3.40;;;14.00;99.90;;;;;;5035268;28;20045;-71
2022/07/05 02:31:22;;;;;;;5.45;4.15;;;14.00;99.90;;;;;;5035359;28;20045;-72
2022/07/05 02:33:47;;;;;;;5.43;4.00;;;13.90;99.90;;;;;;5035049;28;20126;-71
2022/07/05 02:36:13;;;;;;;8.75;4.32;;;14.00;99.90;;;;;;5034920;28;20045;-72
2022/07/05 02:38:40;;;;;;;3.90;3.50;;;14.00;99.90;;;;;;5035126;28;20052;-71
2022/07/05 02:41:07;;;;;;;5.80;4.30;;;14.00;99.90;;;;;;5016951;28;20081;-70
2022/07/05 02:43:34;;;;;;;8.50;3.78;;;14.00;99.90;;;;;;5034996;28;20037;-71
2022/07/05 02:46:00;;;;;;;6.95;4.20;;;14.10;99.90;;;;;;5034885;28;20471;-71
2022/07/05 02:48:26;;;;;;;5.05;3.60;;;14.10;99.90;;;;;;5035236;28;20051;-71
2022/07/05 02:50:51;;;;;;;7.18;4.40;;;14.10;99.90;;;;;;5034965;28;20037;-71
2022/07/05 02:53:17;;;;;;;7.35;3.97;;;14.20;99.90;;;;;;5034918;28;20045;-71
2022/07/05 02:55:42;;;;;;;4.53;3.42;;;14.20;99.90;;;;;;5034955;28;20367;-71
2022/07/05 02:58:08;;;;;;;5.40;3.47;;;14.20;99.90;;;;;;5034080;28;20049;-72
2022/07/05 03:00:34;;;;;;;10.65;4.20;;;14.20;99.90;;;;;;5035136;28;20047;-71
2022/07/05 03:02:59;;;;;;;5.75;3.53;;;14.30;99.90;;;;;;5034731;28;20364;-71
2022/07/05 03:05:25;;;;;;;6.90;3.75;;;14.30;99.90;;;;;;5022338;28;20415;-71
2022/07/05 03:07:50;;;;;;;8.10;3.70;;;14.30;99.90;;;;;;5014631;28;20415;-71
2022/07/05 03:10:16;;;;;;;7.75;3.72;;;14.30;99.90;;;;;;5014917;28;20129;-72
2022/07/05 03:12:42;;;;;;;7.32;3.58;;;14.30;99.90;;;;;;5015054;28;20042;-71
2022/07/05 03:15:08;;;;;;;6.28;3.45;;;14.30;99.90;;;;;;5024246;28;20087;-71
2022/07/05 03:17:33;;;;;;;8.75;3.40;;;14.30;99.90;;;;;;5034707;28;20068;-72
2022/07/05 03:19:59;;;;;;;7.78;4.38;;;14.40;99.90;;;;;;5034505;28;20444;-72
2022/07/05 03:22:24;;;;;;;7.00;3.75;;;14.40;99.90;;;;;;5034473;28;20049;-71
2022/07/05 03:24:50;;;;;;;6.88;3.58;;;14.40;99.90;;;;;;5034708;28;20348;-71
2022/07/05 03:27:15;;;;;;;6.45;3.63;;;14.30;99.90;;;;;;5034668;28;20108;-72
2022/07/05 03:29:41;;;;;;;7.20;3.60;;;14.30;99.90;;;;;;5034736;28;20459;-71
2022/07/05 03:32:07;;;;;;;7.05;3.83;;;14.30;99.90;;;;;;5033876;28;20132;-71
2022/07/05 03:34:33;;;;;;;7.47;3.70;;;14.30;99.90;;;;;;5034545;28;20053;-72
2022/07/05 03:36:58;;;;;;;8.35;5.90;;;14.30;99.90;;;;;;5034414;28;20045;-72
2022/07/05 03:39:24;;;;;;;5.97;3.88;;;14.30;99.90;;;;;;5034649;28;20054;-72
2022/07/05 03:41:49;;;;;;;8.30;3.60;;;14.40;99.90;;;;;;5035040;28;20049;-71
2022/07/05 03:44:15;;;;;;;9.18;3.65;;;14.30;99.90;;;;;;5038776;28;20045;-71
2022/07/05 03:46:40;;;;;;;5.35;3.47;;;14.30;99.90;;;;;;5038177;28;20045;-71
2022/07/05 03:49:06;;;;;;;7.93;3.40;;;14.40;99.90;;;;;;5037433;28;20064;-71
2022/07/05 03:51:32;;;;;;;5.53;3.45;;;14.40;99.90;;;;;;5038110;28;20045;-70
2022/07/05 03:53:57;;;;;;;7.90;3.28;;;14.40;99.90;;;;;;5038111;28;20124;-72
2022/07/05 03:56:24;;;;;;;8.32;3.80;;;14.40;99.90;;;;;;5038116;28;20080;-71
2022/07/05 03:58:50;;;;;;;5.85;3.10;;;14.40;99.90;;;;;;5038378;28;20114;-71
2022/07/05 04:01:16;;;;;;;6.82;3.50;;;14.40;99.90;;;;;;5037906;28;20120;-72
2022/07/05 04:03:41;;;;;;;5.18;2.90;;;14.40;99.90;;;;;;5037877;28;20124;-71
2022/07/05 04:06:11;;;;;;;7.43;3.80;;;14.40;99.90;;;;;;5028889;28;20506;-71
2022/07/05 04:08:37;;;;;;;6.47;3.40;;;14.40;99.90;;;;;;5038007;28;20045;-71
2022/07/05 04:11:03;;;;;;;6.18;3.58;;;14.40;99.90;;;;;;5037690;28;20072;-71
2022/07/05 04:13:29;;;;;;;7.45;3.40;;;14.40;99.90;;;;;;5037885;28;20119;-71
2022/07/05 04:15:55;;;;;;;9.43;3.65;;;14.40;99.90;;;;;;5037424;28;20126;-71
2022/07/05 04:18:21;;;;;;;5.55;3.20;;;14.40;99.90;;;;;;5037572;28;20065;-71
2022/07/05 04:20:47;;;;;;;6.82;3.50;;;14.30;99.90;;;;;;5037437;28;20049;-70
2022/07/05 04:23:13;;;;;;;8.05;3.60;;;14.30;99.90;;;;;;5036588;28;20049;-72
2022/07/05 04:25:39;;;;;;;8.73;3.42;;;14.30;99.90;;;;;;5037517;28;20053;-72
2022/07/05 04:28:05;;;;;;;10.27;3.25;;;14.30;99.90;;;;;;5037353;28;20420;-71
2022/07/05 04:30:30;;;;;;;4.82;2.90;;;14.30;99.90;;;;;;5037594;28;20045;-72
2022/07/05 04:32:57;;;;;;;5.43;3.00;;;14.30;99.90;;;;;;5037335;28;20088;-72
2022/07/05 04:35:23;;;;;;;4.68;2.80;;;14.30;99.90;;;;;;5036781;28;20082;-71
2022/07/05 04:37:48;;;;;;;7.70;2.90;;;14.30;99.90;;;;;;5037230;28;20435;-72
2022/07/05 04:40:15;;;;;;;7.07;2.97;;;14.30;99.90;;;;;;5036311;28;20034;-72
2022/07/05 04:42:41;;;;;;;8.63;3.30;;;14.30;99.90;;;;;;5037248;28;20060;-71
2022/07/05 04:45:08;;;;;;;7.13;3.45;;;14.30;99.90;;;;;;5037343;28;20213;-71
2022/07/05 04:47:36;;;;;;;6.95;3.15;;;14.30;99.90;;;;;;5036921;28;20041;-72
2022/07/05 04:50:04;;;;;;;6.28;2.92;;;14.30;99.90;;;;;;5036929;28;20129;-71
2022/07/05 04:52:29;;;;;;;6.78;3.20;;;14.40;99.90;;;;;;5037087;28;20383;-72
2022/07/05 04:54:55;;;;;;;10.55;3.20;;;14.50;99.90;;;;;;5036992;28;20045;-72
2022/07/05 04:57:21;;;;;;;4.30;2.78;;;14.50;99.90;;;;;;5036151;28;20095;-72
2022/07/05 04:59:46;;;;;;;8.43;2.83;;;14.60;99.90;;;;;;5036997;28;20049;-72
2022/07/05 05:02:12;;;;;;;8.00;2.88;;;14.60;99.90;;;;;;5036587;28;20466;-71
2022/07/05 05:04:37;;;;;;;6.30;2.83;;;14.70;99.90;;;;;;5031045;28;20057;-71
2022/07/05 05:07:03;;;;;;;7.97;3.08;;;14.70;99.90;;;;;;5016826;28;20042;-71
2022/07/05 05:09:29;;;;;;;5.60;2.90;;;14.80;99.90;;;;;;5016822;28;20105;-73
2022/07/05 05:11:54;;;;;;;7.13;3.03;;;14.90;99.90;;;;;;5016699;28;20108;-72
2022/07/05 05:14:20;;;;;;;7.93;3.08;;;15.00;99.90;;;;;;5027725;28;20041;-73
2022/07/05 05:16:45;;;;;;;9.80;2.80;;;15.00;99.90;;;;;;5036674;28;20120;-73
2022/07/05 05:19:11;;;;;;;4.85;2.25;;;15.00;99.90;;;;;;5036364;28;20045;-72
2022/07/05 05:21:37;;;;;;;7.13;2.90;;;15.10;99.90;;;;;;5036355;28;20353;-71
2022/07/05 05:24:03;;;;;;;7.05;2.65;;;15.20;99.90;;;;;;5036118;28;20045;-71
2022/07/05 05:26:28;;;;;;;5.22;2.45;;;15.20;99.90;;;;;;5036152;28;20076;-70
2022/07/05 05:28:54;;;;;;;5.22;2.50;;;15.10;99.90;;;;;;5036464;28;20120;-71
2022/07/05 05:31:20;;;;;;;6.30;2.45;;;15.20;99.90;;;;;;5033342;28;20045;-69
2022/07/05 05:33:46;;;;;;;7.50;2.95;;;15.20;99.90;;;;;;5016135;28;20042;-72
2022/07/05 05:36:11;;;;;;;6.07;2.58;;;15.20;99.90;;;;;;5016264;28;20065;-71
2022/07/05 05:38:37;;;;;;;6.10;2.45;;;15.20;99.90;;;;;;5016395;28;20456;-70
2022/07/05 05:41:03;;;;;;;9.55;3.72;;;15.20;99.90;;;;;;4999060;28;20133;-70
2022/07/05 05:43:29;;;;;;;7.32;2.63;;;15.30;99.90;;;;;;5016110;28;20121;-65
2022/07/05 05:45:54;;;;;;;6.18;2.42;;;15.30;99.90;;;;;;5015870;28;20128;-67
2022/07/05 05:48:20;;;;;;;9.55;2.45;;;15.40;99.90;;;;;;5026910;28;20471;-66
2022/07/05 05:50:47;;;;;;;11.90;3.30;;;15.50;99.90;;;;;;5035640;28;20045;-67
2022/07/05 05:53:13;;;;;;;11.07;2.45;;;15.50;99.90;;;;;;5035853;28;20206;-67
2022/07/05 05:55:39;;;;;;;9.15;2.58;;;15.60;99.90;;;;;;5035781;28;20128;-66
2022/07/05 05:58:16;;;;;;;14.35;3.22;;;15.70;99.90;;;;;;5035573;28;20184;-66
2022/07/05 06:00:42;;;;;;;10.43;2.50;;;15.80;99.90;;;;;;5018346;28;20049;-66
2022/07/05 06:03:09;;;;;;;9.13;3.05;;;15.80;99.90;;;;;;5035428;28;20045;-67
2022/07/05 06:05:34;;;;;;;10.43;2.25;;;15.90;99.90;;;;;;5021664;28;20034;-67
2022/07/05 06:08:00;;;;;;;6.10;2.33;;;15.90;99.90;;;;;;5015524;28;20053;-67
2022/07/05 06:10:31;;;;;;;7.45;2.30;;;16.00;99.90;;;;;;5015472;28;20050;-67
2022/07/05 06:12:58;;;;;;;11.25;2.67;;;16.10;99.90;;;;;;5015188;28;20483;-66
2022/07/05 06:15:24;;;;;;;6.97;1.80;;;16.20;99.90;;;;;;5015684;28;20341;-66
2022/07/05 06:17:50;;;;;;;7.20;1.90;;;16.20;99.90;;;;;;5015605;28;20056;-67
2022/07/05 06:20:19;;;;;;;8.45;2.20;;;16.30;99.90;;;;;;5015244;28;20448;-68
2022/07/05 06:22:46;;;;;;;7.68;2.08;;;16.30;99.90;;;;;;5029989;28;20037;-66
2022/07/05 06:25:11;;;;;;;17.02;3.67;;;16.40;99.90;;;;;;5035256;28;20060;-68
2022/07/05 06:27:41;;;;;;;9.52;2.08;;;16.50;99.90;;;;;;5035607;28;20045;-67
2022/07/05 06:30:09;;;;;;;3.78;1.80;;;16.60;99.90;;;;;;5035331;28;20418;-67
2022/07/05 06:32:35;;;;;;;9.20;2.10;;;16.60;99.90;;;;;;5035467;28;20041;-66
2022/07/05 06:35:01;;;;;;;6.78;2.00;;;16.50;99.90;;;;;;5034997;28;20054;-66
2022/07/05 06:37:26;;;;;;;9.35;2.30;;;16.40;99.90;;;;;;5035130;28;20064;-65
2022/07/05 06:39:52;;;;;;;4.85;2.30;;;16.30;99.90;;;;;;5034197;28;20444;-67
2022/07/05 06:42:17;;;;;;;9.93;1.95;;;16.40;99.90;;;;;;5034912;28;20133;-68
2022/07/05 06:44:43;;;;;;;8.48;2.22;;;16.30;99.90;;;;;;5035091;28;20053;-66
2022/07/05 06:47:09;;;;;;;10.85;2.15;;;16.30;99.90;;;;;;5034791;28;20053;-66
2022/07/05 06:49:35;;;;;;;6.88;2.10;;;16.30;99.90;;;;;;5034877;28;20037;-66
2022/07/05 06:52:00;;;;;;;6.88;2.40;;;16.30;99.90;;;;;;5034771;28;20037;-68
2022/07/05 06:54:26;;;;;;;6.22;1.85;;;16.50;99.90;;;;;;5035092;28;20053;-67
2022/07/05 06:56:53;;;;;;;5.28;1.88;;;16.60;99.90;;;;;;5033934;28;20045;-68
2022/07/05 06:59:18;;;;;;;6.10;1.98;;;16.70;99.90;;;;;;5034602;28;20419;-67
2022/07/05 07:01:44;;;;;;;8.43;2.10;;;16.70;99.90;;;;;;5034876;28;20103;-66
2022/07/05 07:04:10;;;;;;;11.00;2.10;;;16.70;99.90;;;;;;5032546;28;20061;-66
2022/07/05 07:06:35;;;;;;;6.68;2.10;;;16.70;99.90;;;;;;5015187;28;20094;-67
2022/07/05 07:09:20;;;;;;;4.90;1.45;;;16.70;99.90;;;;;;5013651;28;20052;-66
2022/07/05 07:11:47;;;;;;;4.00;1.80;;;16.60;99.90;;;;;;5014872;28;20050;-68
2022/07/05 07:14:12;;;;;;;5.97;1.70;;;16.60;99.90;;;;;;5032633;28;20088;-67
2022/07/05 07:16:38;;;;;;;6.35;1.30;;;16.70;99.90;;;;;;5035196;28;20072;-67
2022/07/05 07:19:04;;;;;;;5.78;1.42;;;16.90;99.90;;;;;;5038648;28;20133;-66
2022/07/05 07:21:29;;;;;;;9.43;1.80;;;17.10;99.90;;;;;;5038757;28;20115;-66
2022/07/05 07:23:55;;;;;;;10.80;2.05;;;17.20;99.90;;;;;;5038471;28;20120;-66
2022/07/05 07:26:21;;;;;;;7.55;1.67;;;17.20;99.90;;;;;;5021134;28;20083;-67
2022/07/05 07:28:46;;;;;;;7.07;2.10;;;17.10;99.90;;;;;;5021036;28;20049;-66
2022/07/05 07:31:12;;;;;;;5.50;1.60;;;17.10;99.90;;;;;;5037556;28;20049;-67
2022/07/05 07:33:37;;;;;;;6.05;1.70;;;17.10;99.90;;;;;;5038209;28;20050;-67
2022/07/05 07:36:04;;;;;;;6.93;2.20;;;17.20;99.90;;;;;;5038431;28;20049;-68
2022/07/05 07:38:29;;;;;;;8.35;2.28;;;17.30;99.90;;;;;;5038261;28;20394;-67
2022/07/05 07:40:55;;;;;;;9.55;2.15;;;17.50;99.90;;;;;;5038364;28;20045;-67
2022/07/05 07:43:21;;;;;;;6.13;1.48;;;17.60;99.90;;;;;;5038217;28;20446;-68
2022/07/05 07:45:48;;;;;;;5.32;1.65;;;17.70;99.90;;;;;;5021138;28;20054;-67
2022/07/05 07:48:13;;;;;;;9.27;1.95;;;17.80;99.90;;;;;;5037198;28;20059;-67
2022/07/05 07:50:39;;;;;;;5.32;2.10;;;17.90;99.90;;;;;;5038118;28;20479;-67
2022/07/05 07:53:05;;;;;;;7.15;1.92;;;17.70;99.90;;;;;;5037674;28;20107;-67
2022/07/05 07:55:30;;;;;;;4.47;1.80;;;17.50;99.90;;;;;;5038296;28;20116;-66
2022/07/05 07:57:56;;;;;;;7.05;1.73;;;17.40;99.90;;;;;;5038136;28;20045;-66
2022/07/05 08:00:21;;;;;;;5.97;1.85;;;17.40;99.90;;;;;;5038200;28;20071;-67
2022/07/05 08:02:47;;;;;;;7.10;1.65;;;17.40;99.90;;;;;;5038043;28;20398;-66
2022/07/05 08:05:12;;;;;;;4.45;1.65;;;17.40;99.90;;;;;;5019381;28;20057;-67
2022/07/05 08:07:38;;;;;;;6.00;1.60;;;17.50;99.90;;;;;;5017991;28;20050;-68
2022/07/05 08:10:05;;;;;;;3.60;1.30;;;17.60;99.90;;;;;;5017970;28;20054;-67
2022/07/05 08:12:30;;;;;;;6.35;1.70;;;17.70;99.90;;;;;;5017798;28;20041;-67
2022/07/05 08:14:56;;;;;;;4.97;2.10;;;17.70;99.90;;;;;;5017989;28;20041;-67
2022/07/05 08:17:22;;;;;;;6.00;2.17;;;17.90;99.90;;;;;;5017821;28;20045;-67
2022/07/05 08:22:32;;;;;;;9.93;2.45;;;18.10;99.90;;;;;;4998078;28;20424;-67
2022/07/05 08:24:57;;;;;;;5.18;1.52;;;18.00;99.90;;;;;;4998169;28;20125;-66
2022/07/05 08:27:26;;;;;;;8.75;2.08;;;17.60;99.90;;;;;;4997858;28;20362;-67
2022/07/05 08:29:52;;;;;;;7.60;1.92;;;17.40;99.90;;;;;;4997996;28;20053;-67
2022/07/05 08:32:18;;;;;;;7.82;2.08;;;17.20;99.90;;;;;;4998219;28;20058;-66
2022/07/05 08:34:43;;;;;;;7.50;3.03;;;17.20;99.90;;;;;;4997581;28;20050;-67
2022/07/05 08:37:09;;;;;;;3.60;2.30;;;17.50;99.90;;;;;;5001482;28;20050;-66
2022/07/05 08:39:35;;;;;;;7.60;2.42;;;17.80;99.90;;;;;;5037261;28;20056;-68
2022/07/05 08:42:01;;;;;;;6.25;1.85;;;17.50;99.90;;;;;;5037066;28;20452;-67
2022/07/05 08:44:35;;;;;;;4.85;1.77;;;17.40;99.90;;;;;;5037374;28;20103;-67
2022/07/05 08:47:02;;;;;;;7.80;2.40;;;17.40;99.90;;;;;;5036856;28;20037;-67
2022/07/05 08:49:30;;;;;;;5.97;2.20;;;17.50;99.90;;;;;;5016198;28;20102;-66
2022/07/05 08:51:56;;;;;;;4.82;1.92;;;17.60;99.90;;;;;;4997659;28;20042;-66
2022/07/05 08:54:23;;;;;;;5.25;1.65;;;17.80;99.90;;;;;;5004429;28;20056;-66
2022/07/05 08:56:50;;;;;;;5.05;1.80;;;18.10;99.90;;;;;;5036884;28;20049;-66
2022/07/05 08:59:15;;;;;;;5.65;2.20;;;17.90;99.90;;;;;;5036933;28;20058;-67
2022/07/05 09:01:44;;;;;;;8.23;2.58;;;17.60;99.90;;;;;;5036274;28;20049;-66
2022/07/05 09:04:13;;;;;;;9.02;2.30;;;17.50;99.90;;;;;;5026483;28;20053;-67
2022/07/05 09:06:40;;;;;;;5.32;1.92;;;17.50;99.90;;;;;;5016856;28;20069;-67
2022/07/05 09:09:07;;;;;;;6.05;1.85;;;17.80;99.90;;;;;;5017071;28;20077;-67
2022/07/05 09:11:37;;;;;;;7.80;2.20;;;18.00;99.90;;;;;;5021683;28;20180;-67
2022/07/05 09:14:06;;;;;;;7.50;1.98;;;18.20;99.90;;;;;;5036592;28;20418;-66
2022/07/05 09:16:32;;;;;;;4.75;2.22;;;18.50;99.90;;;;;;5036948;28;20053;-67
2022/07/05 09:19:05;;;;;;;7.13;2.53;;;18.30;99.90;;;;;;5036802;28;20037;-66
2022/07/05 09:21:31;;;;;;;7.72;2.10;;;18.10;99.90;;;;;;5019080;28;20475;-67
2022/07/05 09:24:13;;;;;;;5.80;2.03;;;18.20;99.90;;;;;;5036328;28;20134;-67
2022/07/05 09:26:41;;;;;;;5.88;1.73;;;18.30;99.90;;;;;;5036048;28;20046;-68
2022/07/05 09:29:07;;;;;;;9.07;2.25;;;18.30;99.90;;;;;;5035348;28;20055;-67
2022/07/05 09:31:37;;;;;;;7.22;2.15;;;18.50;99.90;;;;;;5036263;28;20049;-67
2022/07/05 09:34:22;;;;;;;6.57;1.98;;;18.60;99.90;;;;;;5036273;28;20053;-67
2022/07/05 09:36:58;;;;;;;;;;;18.70;99.90;;;;;;5036543;28;20045;-68
2022/07/05 09:39:29;;;;;;;8.10;1.60;;;18.40;99.90;;;;;;5035423;28;19974;-67
2022/07/05 09:42:11;;;;;;;7.30;2.05;;;18.60;99.90;;;;;;5036009;28;20053;-67
2022/07/05 09:44:44;;;;;;;5.38;1.67;;;18.70;99.90;;;;;;5036001;28;20344;-67
2022/07/05 09:47:12;;;;;;;4.10;1.50;;;18.90;99.90;;;;;;5035095;28;20037;-67
2022/07/05 09:49:53;;;;;;;4.60;1.30;;;19.30;99.90;;;;;;5018761;28;20124;-68
2022/07/05 09:52:36;;;;;;;6.65;2.05;;;19.10;99.90;;;;;;5036515;28;20381;-67
2022/07/05 09:55:23;;;;;;;6.53;2.15;;;19.00;99.90;;;;;;5035737;28;20383;-67
2022/07/05 09:57:50;;;;;;;5.80;1.60;;;18.80;99.90;;;;;;5035838;28;20199;-66
2022/07/05 10:00:21;;;;;;;7.22;1.45;;;18.70;99.90;;;;;;5035690;28;20064;-67
2022/07/05 10:02:50;;;;;;;6.03;1.80;;;18.80;99.90;;;;;;5028868;28;20049;-67
2022/07/05 10:05:26;;;;;;;6.97;1.77;;;18.50;99.90;;;;;;5015941;28;20049;-67
2022/07/05 10:07:54;;;;;;;6.70;2.00;;;18.60;99.90;;;;;;5015629;28;20041;-68
2022/07/05 10:10:27;;;;;;;8.05;1.55;;;18.80;99.90;;;;;;5015832;28;20060;-68
2022/07/05 10:13:05;;;;;;;3.33;1.35;;;18.90;99.90;;;;;;5015656;28;20045;-67
2022/07/05 10:15:33;;;;;;;5.80;1.88;;;19.10;99.90;;;;;;5015730;28;20045;-66
2022/07/05 10:18:07;;;;;;;9.38;2.67;;;19.00;99.90;;;;;;5015728;28;20192;-67
2022/07/05 10:20:34;;;;;;;;;;;18.90;99.90;;;;;;5028619;28;20056;-67
2022/07/05 10:23:06;;;;;;;5.38;1.67;;;18.50;99.90;;;;;;5035379;28;19932;-67
2022/07/05 10:25:32;;;;;;;5.60;1.58;;;18.70;99.90;;;;;;5035186;28;20057;-67
2022/07/05 10:27:58;;;;;;;3.85;1.83;;;18.60;99.90;;;;;;5035283;28;20075;-66
2022/07/05 10:30:25;;;;;;;5.05;1.65;;;18.90;99.90;;;;;;5035132;28;20146;-67
2022/07/05 10:32:51;;;;;;;3.28;1.52;;;19.20;99.90;;;;;;5035245;28;20154;-68
2022/07/05 10:35:18;;;;;;;8.07;1.88;;;19.10;99.90;;;;;;5017363;28;20053;-67
2022/07/05 10:37:45;;;;;;;5.10;1.52;;;19.00;99.90;;;;;;5017362;28;20060;-67
2022/07/05 10:40:11;;;;;;;5.82;1.58;;;18.80;99.90;;;;;;5035357;28;20132;-67
2022/07/05 10:42:43;;;;;;;7.72;2.60;;;18.80;99.90;;;;;;5035264;28;20041;-67
2022/07/05 10:45:31;;;;;;;5.93;1.70;;;18.60;99.90;;;;;;5034991;28;20041;-68
2022/07/05 10:48:09;;;;;;;7.30;2.10;;;18.70;99.90;;;;;;5034787;28;20041;-67
2022/07/05 10:50:54;;;;;;;12.25;2.25;;;18.40;99.90;;;;;;5035140;28;20420;-67
2022/07/05 10:53:34;;;;;;;7.03;2.15;;;18.10;99.90;;;;;;5034193;28;20519;-67
2022/07/05 10:56:20;;;;;;;7.10;2.38;;;17.90;99.90;;;;;;5017613;28;20083;-68
2022/07/05 10:58:47;;;;;;;8.65;2.42;;;18.10;99.90;;;;;;5034030;28;20053;-67
2022/07/05 11:01:19;;;;;;;6.63;1.85;;;18.10;99.90;;;;;;5035017;28;20074;-67
2022/07/05 11:04:00;;;;;;;7.55;1.92;;;18.00;99.90;;;;;;5019571;28;20072;-67
2022/07/05 11:06:33;;;;;;;7.07;2.25;;;18.10;99.90;;;;;;5014825;28;20109;-67
2022/07/05 11:08:59;;;;;;;7.05;1.77;;;18.50;99.90;;;;;;5014966;28;20169;-67
2022/07/05 11:11:32;;;;;;;7.20;2.08;;;18.50;99.90;;;;;;5013729;28;20058;-67
2022/07/05 11:14:00;;;;;;;8.00;2.67;;;18.80;99.90;;;;;;5014905;28;20057;-67
2022/07/05 11:16:35;;;;;;;4.90;1.80;;;19.00;99.90;;;;;;5015164;28;20152;-66
2022/07/05 11:19:09;;;;;;;8.48;1.60;;;18.60;99.90;;;;;;5014924;28;20344;-68
2022/07/05 11:21:36;;;;;;;6.60;1.60;;;18.50;99.90;;;;;;5014902;28;20103;-67
2022/07/05 11:24:25;;;;;;;6.70;2.22;;;18.70;99.90;;;;;;5014813;28;20046;-67
2022/07/05 11:26:52;;;;;;;4.18;1.70;;;18.80;99.90;;;;;;5014990;28;20371;-66
2022/07/05 11:29:41;;;;;;;5.70;2.00;;;18.70;99.90;;;;;;5033840;28;20474;-67
2022/07/05 11:32:09;;;;;;;6.13;2.15;;;18.50;99.90;;;;;;5034448;28;20084;-67
2022/07/05 11:34:36;;;;;;;6.40;2.25;;;18.70;99.90;;;;;;5034720;28;20107;-66
2022/07/05 11:37:13;;;;;;;6.70;2.00;;;18.50;99.90;;;;;;5034508;28;20073;-67
2022/07/05 11:39:40;;;;;;;2.67;1.40;;;18.30;99.90;;;;;;5034524;28;20451;-67
2022/07/05 11:42:07;;;;;;;3.28;1.60;;;18.80;99.90;;;;;;5034508;28;20037;-67
2022/07/05 11:44:34;;;;;;;3.65;1.80;;;19.30;99.90;;;;;;5033588;28;20052;-68
2022/07/05 11:47:01;;;;;;;8.98;2.38;;;19.40;99.90;;;;;;5034311;28;20045;-67
2022/07/05 11:49:27;;;;;;;4.82;1.80;;;19.30;99.90;;;;;;5034384;28;20048;-67
2022/07/05 11:51:54;;;;;;;7.90;1.92;;;19.20;99.90;;;;;;5034463;28;20456;-67
2022/07/05 11:54:27;;;;;;;5.40;2.25;;;19.60;99.90;;;;;;5034123;28;20049;-66
2022/07/05 11:56:53;;;;;;;6.07;2.30;;;19.80;99.90;;;;;;5034565;28;20120;-64
2022/07/05 11:59:23;;;;;;;7.25;2.08;;;19.00;99.90;;;;;;5034135;28;20220;-67
2022/07/05 12:01:50;;;;;;;5.25;2.13;;;18.90;99.90;;;;;;5033388;28;20049;-67
2022/07/05 12:04:23;;;;;;;4.32;2.08;;;18.90;99.90;;;;;;4999678;28;20052;-68
2022/07/05 12:06:50;;;;;;;4.57;2.10;;;18.80;99.90;;;;;;4998689;28;20057;-67
2022/07/05 12:09:23;;;;;;;4.50;2.03;;;18.70;99.90;;;;;;4998035;28;20384;-67
2022/07/05 12:14:51;;;;;;;4.43;1.80;;;18.50;99.90;;;;;;4998421;28;20380;-67
2022/07/05 12:17:18;;;;;;;4.22;1.50;;;18.70;99.90;;;;;;4998042;28;20058;-68
2022/07/05 12:19:47;;;;;;;8.23;2.45;;;18.70;99.90;;;;;;5027702;28;20489;-67
2022/07/05 12:22:14;;;;;;;4.63;1.50;;;19.00;99.90;;;;;;5037484;28;20077;-67
2022/07/05 12:24:40;;;;;;;7.03;1.60;;;19.10;99.90;;;;;;5037497;28;20049;-67
2022/07/05 12:27:05;;;;;;;4.75;1.70;;;18.80;99.90;;;;;;5037523;28;20041;-67
2022/07/05 12:29:31;;;;;;;6.30;1.75;;;19.00;99.90;;;;;;5037454;28;20372;-68
2022/07/05 12:32:08;;;;;;;5.50;1.90;;;18.90;99.90;;;;;;5037189;28;20045;-67
2022/07/05 12:34:34;;;;;;;6.35;1.48;;;18.70;99.90;;;;;;5037649;28;20155;-67
2022/07/05 12:37:00;;;;;;;4.18;1.55;;;19.40;99.90;;;;;;5018703;28;20057;-67
2022/07/05 12:39:26;;;;;;;5.35;2.17;;;20.00;99.90;;;;;;5037583;28;20048;-68
2022/07/05 12:41:52;;;;;;;5.32;1.98;;;19.70;99.90;;;;;;5037363;28;20057;-67
2022/07/05 12:44:21;;;;;;;7.93;2.00;;;19.90;99.90;;;;;;5037270;28;20061;-68
2022/07/05 12:46:49;;;;;;;5.20;1.75;;;19.80;99.90;;;;;;5037059;28;20129;-67
2022/07/05 12:49:15;;;;;;;4.65;1.45;;;19.80;99.90;;;;;;5036963;28;20068;-67
2022/07/05 12:51:42;;;;;;;2.92;1.30;;;20.30;99.90;;;;;;5037326;28;20404;-67
2022/07/05 13:00:03;;;;;;;5.65;2.10;;;21.00;99.90;;;;;;5036841;28;20058;-68
2022/07/05 13:02:45;;;;;;;8.60;1.77;;;21.60;99.90;;;;;;5031979;28;20053;-67
2022/07/05 13:05:21;;;;;;;5.88;1.65;;;22.00;99.90;;;;;;5017279;28;20104;-66